createdAt,value
2018-07-07T00:02:19.157Z,75.70
2018-07-07T00:06:23.528Z,75.40
2018-07-07T00:10:27.748Z,76.90
2018-07-07T00:14:32.137Z,76.30
2018-07-07T00:18:36.548Z,75.30
2018-07-07T00:22:40.843Z,75.20
2018-07-07T00:26:45.243Z,78.80
2018-07-07T00:30:49.440Z,80.50
2018-07-07T00:34:53.677Z,80.00
2018-07-07T00:38:58.005Z,76.40
2018-07-07T00:43:02.341Z,79.90
2018-07-07T00:47:06.758Z,82.10
2018-07-07T00:51:11.106Z,81.20
2018-07-07T00:55:15.356Z,86.50
2018-07-07T00:59:19.665Z,86.10
2018-07-07T01:03:24.032Z,79.40
2018-07-07T01:07:28.309Z,87.40
2018-07-07T01:11:32.634Z,85.70
2018-07-07T01:15:36.869Z,87.90
2018-07-07T01:19:41.419Z,89.50
2018-07-07T01:23:45.761Z,91.20
2018-07-07T01:27:50.061Z,91.70
2018-07-07T01:31:54.481Z,92.80
2018-07-07T01:35:58.712Z,93.70
2018-07-07T01:40:02.928Z,94.00
2018-07-07T01:44:07.442Z,94.60
2018-07-07T01:48:11.648Z,94.80
2018-07-07T01:52:16.101Z,88.90
2018-07-07T01:56:20.325Z,93.40
2018-07-07T02:00:24.626Z,92.90
2018-07-07T02:04:29.001Z,82.40
2018-07-07T02:08:33.374Z,89.30
2018-07-07T02:12:37.639Z,81.60
2018-07-07T02:16:42.035Z,83.80
2018-07-07T02:20:46.217Z,78.60
2018-07-07T02:24:51.394Z,86.80
2018-07-07T02:28:55.690Z,89.40
2018-07-07T02:32:59.979Z,87.30
2018-07-07T02:37:04.343Z,86.50
2018-07-07T02:41:08.632Z,88.10
2018-07-07T02:45:12.922Z,90.80
2018-07-07T02:49:17.333Z,89.60
2018-07-07T02:53:21.514Z,83.00
2018-07-07T02:57:25.720Z,86.10
2018-07-07T03:01:30.154Z,85.30
2018-07-07T03:05:34.355Z,89.10
2018-07-07T03:09:38.664Z,89.60
2018-07-07T03:13:43.054Z,91.10
2018-07-07T03:17:47.333Z,92.40
2018-07-07T03:21:51.735Z,92.10
2018-07-07T03:25:56.156Z,92.20
2018-07-07T03:30:00.502Z,93.00
2018-07-07T03:34:04.784Z,92.80
2018-07-07T03:38:09.144Z,93.80
2018-07-07T03:42:13.516Z,94.60
2018-07-07T03:46:17.768Z,95.00
2018-07-07T03:50:22.065Z,94.90
2018-07-07T03:54:26.348Z,95.30
2018-07-07T03:58:30.660Z,95.80
2018-07-07T04:02:34.929Z,95.70
2018-07-07T04:06:39.332Z,96.10
2018-07-07T04:10:43.588Z,96.60
2018-07-07T04:14:48.011Z,96.80
2018-07-07T04:18:52.243Z,97.10
2018-07-07T04:22:56.680Z,98.30
2018-07-07T04:27:00.933Z,98.00
2018-07-07T04:31:05.191Z,98.30
2018-07-07T04:35:09.521Z,98.70
2018-07-07T04:39:13.789Z,98.00
2018-07-07T04:43:18.655Z,97.80
2018-07-07T04:47:23.034Z,97.70
2018-07-07T04:51:27.309Z,97.60
2018-07-07T04:55:31.528Z,95.40
2018-07-07T04:59:35.938Z,95.60
2018-07-07T05:03:40.113Z,94.10
2018-07-07T05:07:44.628Z,90.80
2018-07-07T05:11:49.038Z,76.90
2018-07-07T05:15:53.256Z,75.00
2018-07-07T05:19:57.517Z,73.00
2018-07-07T05:24:02.649Z,72.70
2018-07-07T05:28:12.547Z,71.20
2018-07-07T05:32:20.286Z,73.30
2018-07-07T05:36:34.385Z,73.50
2018-07-07T05:40:44.457Z,72.40
2018-07-07T05:44:54.228Z,76.00
2018-07-07T05:48:58.664Z,74.40
2018-07-07T05:53:02.906Z,76.80
2018-07-07T05:57:07.377Z,75.80
2018-07-07T06:01:11.703Z,74.30
2018-07-07T06:05:15.949Z,67.60
2018-07-07T06:09:20.275Z,69.40
2018-07-07T06:13:24.640Z,70.20
2018-07-07T06:17:28.970Z,73.40
2018-07-07T06:21:33.208Z,74.20
2018-07-07T06:25:37.416Z,72.40
2018-07-07T06:29:41.688Z,71.80
2018-07-07T06:33:46.048Z,66.40
2018-07-07T06:37:50.460Z,72.80
2018-07-07T06:41:55.196Z,63.20
2018-07-07T06:45:59.691Z,67.10
2018-07-07T06:50:03.972Z,68.60
2018-07-07T06:54:08.232Z,63.20
2018-07-07T06:58:12.516Z,68.00
2018-07-07T07:02:16.744Z,63.20
2018-07-07T07:06:21.065Z,63.80
2018-07-07T07:10:25.387Z,61.20
2018-07-07T07:14:29.631Z,64.90
2018-07-07T07:18:33.863Z,65.50
2018-07-07T07:22:38.229Z,61.60
2018-07-07T07:26:42.442Z,57.30
2018-07-07T07:30:46.739Z,59.80
2018-07-07T07:34:51.088Z,57.00
2018-07-07T07:38:55.254Z,55.00
2018-07-07T07:42:59.761Z,55.80
2018-07-07T07:47:04.533Z,56.50
2018-07-07T07:51:08.848Z,52.90
2018-07-07T07:55:13.624Z,53.10
2018-07-07T07:59:18.080Z,52.50
2018-07-07T08:03:22.533Z,52.40
2018-07-07T08:07:27.081Z,51.20
2018-07-07T08:11:31.337Z,51.10
2018-07-07T08:15:35.803Z,53.80
2018-07-07T08:19:40.045Z,56.90
2018-07-07T08:23:44.402Z,52.80
2018-07-07T08:27:49.125Z,52.00
2018-07-07T08:31:53.717Z,50.40
2018-07-07T08:35:58.103Z,52.20
2018-07-07T08:40:02.569Z,50.30
2018-07-07T08:44:07.077Z,50.30
2018-07-07T08:48:11.617Z,52.20
2018-07-07T08:52:16.357Z,52.20
2018-07-07T08:56:20.844Z,48.10
2018-07-07T09:00:25.185Z,46.70
2018-07-07T09:04:29.433Z,47.70
2018-07-07T09:08:33.687Z,43.90
2018-07-07T09:12:38.200Z,42.70
2018-07-07T09:16:42.433Z,43.50
2018-07-07T09:20:46.660Z,40.90
2018-07-07T09:24:50.917Z,39.60
2018-07-07T09:28:55.287Z,38.00
2018-07-07T09:32:59.584Z,42.70
2018-07-07T09:37:03.840Z,38.70
2018-07-07T09:41:08.299Z,36.40
2018-07-07T09:45:12.515Z,35.30
2018-07-07T09:49:16.900Z,38.10
2018-07-07T09:53:21.353Z,35.30
2018-07-07T09:57:25.629Z,35.30
2018-07-07T10:01:29.981Z,36.10
2018-07-07T10:05:34.775Z,34.90
2018-07-07T10:09:39.078Z,37.40
2018-07-07T10:13:43.289Z,38.40
2018-07-07T10:17:47.774Z,39.40
2018-07-07T10:21:52.041Z,37.40
2018-07-07T10:25:56.381Z,37.40
2018-07-07T10:30:00.726Z,36.40
2018-07-07T10:34:05.076Z,33.30
2018-07-07T10:38:09.381Z,37.70
2018-07-07T10:42:13.664Z,36.80
2018-07-07T10:46:18.748Z,35.60
2018-07-07T10:50:23.272Z,34.80
2018-07-07T10:54:27.672Z,31.90
2018-07-07T10:58:32.298Z,29.20
2018-07-07T11:02:37.890Z,29.90
2018-07-07T11:06:42.846Z,29.50
2018-07-07T11:10:47.453Z,29.80
2018-07-07T11:14:52.170Z,31.00
2018-07-07T11:18:56.414Z,29.30
2018-07-07T11:23:00.736Z,29.30
2018-07-07T11:27:04.999Z,27.90
2018-07-07T11:31:09.291Z,29.90
2018-07-07T11:35:13.689Z,28.80
2018-07-07T11:39:17.882Z,29.50
2018-07-07T11:43:22.384Z,29.30
2018-07-07T11:47:26.731Z,27.70
2018-07-07T11:51:30.959Z,25.10
2018-07-07T11:55:37.225Z,26.90
2018-07-07T11:59:41.457Z,27.10
2018-07-07T12:03:45.684Z,26.80
2018-07-07T12:08:00.713Z,25.00
2018-07-07T12:11:54.321Z,25.90
2018-07-07T12:15:58.636Z,25.50
2018-07-07T12:20:02.936Z,23.40
2018-07-07T12:24:07.239Z,25.90
2018-07-07T12:28:11.505Z,24.90
2018-07-07T12:32:15.744Z,25.30
2018-07-07T12:36:20.021Z,25.60
2018-07-07T12:40:24.363Z,27.00
2018-07-07T12:44:28.662Z,26.30
2018-07-07T12:48:33.214Z,27.60
2018-07-07T12:52:37.478Z,28.20
2018-07-07T12:56:41.761Z,26.30
2018-07-07T13:00:46.170Z,24.10
2018-07-07T13:04:50.409Z,26.30
2018-07-07T13:08:54.726Z,27.30
2018-07-07T13:12:59.081Z,25.60
2018-07-07T13:17:03.334Z,25.70
2018-07-07T13:21:07.570Z,24.10
2018-07-07T13:25:11.833Z,23.60
2018-07-07T13:29:16.184Z,24.40
2018-07-07T13:33:20.471Z,24.90
2018-07-07T13:37:24.884Z,25.20
2018-07-07T13:41:29.148Z,24.20
2018-07-07T13:45:33.433Z,24.90
2018-07-07T13:49:38.436Z,24.60
2018-07-07T13:53:42.666Z,23.60
2018-07-07T13:57:47.023Z,23.30
2018-07-07T14:01:51.265Z,23.40
2018-07-07T14:05:55.477Z,23.30
2018-07-07T14:09:59.778Z,22.60
2018-07-07T14:14:04.153Z,24.00
2018-07-07T14:18:08.397Z,23.30
2018-07-07T14:22:12.715Z,24.00
2018-07-07T14:26:16.925Z,21.50
2018-07-07T14:30:21.199Z,24.20
2018-07-07T14:34:25.436Z,23.20
2018-07-07T14:38:35.336Z,25.60
2018-07-07T14:42:50.016Z,25.70
2018-07-07T14:46:54.210Z,26.10
2018-07-07T14:50:58.499Z,25.50
2018-07-07T14:55:02.886Z,26.60
2018-07-07T14:59:07.191Z,24.10
2018-07-07T15:03:11.457Z,27.60
2018-07-07T15:07:15.667Z,26.30
2018-07-07T15:11:19.890Z,28.30
2018-07-07T15:15:24.217Z,29.40
2018-07-07T15:19:28.478Z,28.00
2018-07-07T15:23:33.436Z,28.40
2018-07-07T15:27:37.820Z,26.10
2018-07-07T15:31:42.213Z,23.70
2018-07-07T15:35:46.529Z,24.20
2018-07-07T15:39:50.756Z,25.20
2018-07-07T15:43:55.187Z,24.90
2018-07-07T15:48:01.501Z,22.90
2018-07-07T15:52:05.873Z,22.90
2018-07-07T15:56:10.141Z,23.60
2018-07-07T16:00:14.484Z,24.40
2018-07-07T16:04:18.788Z,23.30
2018-07-07T16:08:23.189Z,25.70
2018-07-07T16:12:27.541Z,25.50
2018-07-07T16:16:31.787Z,25.00
2018-07-07T16:20:36.213Z,25.10
2018-07-07T16:24:40.442Z,25.90
2018-07-07T16:28:44.852Z,28.80
2018-07-07T16:32:49.147Z,31.90
2018-07-07T16:36:53.385Z,34.10
2018-07-07T16:40:58.536Z,37.50
2018-07-07T16:45:02.925Z,36.50
2018-07-07T16:49:07.257Z,36.40
2018-07-07T16:53:11.941Z,36.70
2018-07-07T16:57:17.085Z,38.80
2018-07-07T17:01:21.777Z,39.50
2018-07-07T17:05:26.196Z,38.90
2018-07-07T17:09:30.713Z,37.50
2018-07-07T17:13:35.183Z,38.40
2018-07-07T17:17:39.584Z,39.40
2018-07-07T17:21:44.928Z,41.20
2018-07-07T17:25:49.874Z,42.30
2018-07-07T17:29:54.191Z,39.20
2018-07-07T17:33:59.972Z,44.90
2018-07-07T17:38:04.460Z,42.40
2018-07-07T17:42:15.522Z,42.00
2018-07-07T17:46:27.257Z,44.70
2018-07-07T17:50:39.223Z,41.40
2018-07-07T17:54:48.969Z,48.20
2018-07-07T17:59:03.116Z,42.40
2018-07-07T18:03:14.036Z,41.60
2018-07-07T18:07:24.510Z,45.30
2018-07-07T18:11:35.225Z,44.30
2018-07-07T18:15:44.917Z,39.10
2018-07-07T18:19:57.439Z,39.40
2018-07-07T18:24:07.274Z,39.40
2018-07-07T18:28:19.020Z,35.30
2018-07-07T18:32:29.554Z,35.90
2018-07-07T18:36:39.481Z,41.10
2018-07-07T18:40:49.212Z,40.90
2018-07-07T18:45:00.518Z,38.80
2018-07-07T18:49:12.156Z,35.60
2018-07-07T18:53:23.052Z,37.00
2018-07-07T18:57:35.484Z,37.00
2018-07-07T19:01:44.733Z,39.00
2018-07-07T19:05:54.870Z,41.00
2018-07-07T19:10:04.333Z,40.70
2018-07-07T19:14:09.897Z,39.20
2018-07-07T19:18:15.418Z,38.10
2018-07-07T19:22:25.360Z,40.40
2018-07-07T19:26:34.853Z,38.20
2018-07-07T19:30:39.202Z,44.30
2018-07-07T19:34:48.487Z,44.40
2018-07-07T19:38:52.945Z,42.40
2018-07-07T19:42:57.656Z,43.20
2018-07-07T19:47:01.934Z,43.90
2018-07-07T19:51:06.214Z,42.60
2018-07-07T19:55:10.801Z,43.60
2018-07-07T19:59:15.668Z,46.20
2018-07-07T20:03:20.985Z,43.20
2018-07-07T20:07:25.639Z,47.70
2018-07-07T20:11:30.291Z,46.80
2018-07-07T20:15:45.864Z,48.10
2018-07-07T20:21:01.936Z,47.80
2018-07-07T20:25:06.920Z,50.40
2018-07-07T20:29:11.552Z,50.60
2018-07-07T20:33:16.632Z,52.10
2018-07-07T20:37:21.348Z,50.90
2018-07-07T20:41:25.965Z,52.70
2018-07-07T20:45:30.431Z,52.60
2018-07-07T20:49:34.878Z,54.40
2018-07-07T20:53:39.343Z,55.90
2018-07-07T20:57:44.067Z,57.90
2018-07-07T21:01:49.558Z,57.20
2018-07-07T21:05:53.770Z,57.30
2018-07-07T21:09:58.012Z,58.10
2018-07-07T21:14:02.438Z,57.20
2018-07-07T21:18:06.954Z,57.20
2018-07-07T21:22:11.288Z,58.00
2018-07-07T21:26:15.707Z,58.10
2018-07-07T21:30:19.985Z,61.90
2018-07-07T21:34:24.214Z,60.00
2018-07-07T21:38:28.553Z,61.30
2018-07-07T21:42:32.810Z,61.30
2018-07-07T21:46:37.051Z,63.10
2018-07-07T21:50:41.458Z,59.30
2018-07-07T21:54:45.854Z,59.40
2018-07-07T21:58:54.275Z,60.60
2018-07-07T22:03:03.620Z,61.50
2018-07-07T22:07:14.529Z,61.50
2018-07-07T22:11:18.785Z,60.70
2018-07-07T22:15:22.997Z,63.70
2018-07-07T22:19:27.337Z,63.30
2018-07-07T22:23:31.565Z,64.90
2018-07-07T22:27:35.775Z,65.60
2018-07-07T22:31:40.174Z,65.90
2018-07-07T22:35:49.439Z,67.00
2018-07-07T22:39:53.769Z,69.30
2018-07-07T22:43:58.057Z,66.90
2018-07-07T22:48:02.277Z,68.90
2018-07-07T22:52:07.316Z,69.40
2018-07-07T22:56:11.500Z,70.70
2018-07-07T23:00:15.852Z,71.70
2018-07-07T23:04:20.186Z,73.10
2018-07-07T23:08:24.567Z,73.60
2018-07-07T23:12:28.768Z,75.60
2018-07-07T23:16:33.348Z,75.20
2018-07-07T23:20:37.608Z,76.80
2018-07-07T23:24:41.848Z,77.10
2018-07-07T23:28:46.231Z,77.10
2018-07-07T23:32:51.422Z,78.00
2018-07-07T23:36:55.819Z,79.80
2018-07-07T23:41:00.027Z,78.60
2018-07-07T23:45:04.442Z,80.20
2018-07-07T23:49:08.649Z,80.60
2018-07-07T23:53:13.041Z,82.20
2018-07-07T23:57:17.273Z,81.40
